Cutler, Maine
Current Conditions -  °F | °C
As of 9:55 PM on Wednesday 22 Oct 2014 (Local Time) from KBHB Reporting Station
Overcast Overcast  
Wind Chill: 40°   Ceiling: 1200
Heat Index: 46°   Visibility: 10mi
Dew Point: 45°   Wind: 14mph
Humidity: 93%   Direction: 30°NNE
Pressure: 30.08"   Gusts: 30mph
Location:  44.66°N, 67.2°W
Report Text: KBHB 230155Z AUTO 03012G26KT 10SM OVC012 08/07 A3008 RMK AO1
Loading
Personal Weather Stations






























Interactive Weather Map
Tropical Storm Tracking
New forecast layout! Learn more

10-Day Weather Forecast

Advertisements
Track Severe Weather on mobile